x

Isle Of Shoals, Nh (iosn3) Weather Station

10:00 - Sun 20th Aug 2017 All times are EDT. -4 hours from GMT.

  • Wind
    20mph, 21mph gusts
  • Luft Temp 73°f
  • Sea Pressure 1012.4mb
  • Isle Of Shoals, Nh
  • Isle Of Shoals, Nh

More Historic Weather Station data

Upgrade to MSW Pro to gain access to the past 30 days of data for over 8000 Wavebouys and Weather Stations around the globe.

Join

Comparision Forecast

View Surf forecast
   
So 08/20 10:00 20 21 mph 1012.4mb 73f
9:00 10 11 mph 1012.5mb 70f
8:00 10 11 mph 1012.1mb 68f
7:00 10 10 mph 1011.4mb 69f
6:00 8 8 mph 1010.8mb 68f
5:00 7 7 mph 1010.1mb 69f
4:00 6 6 mph 1009.7mb 68f
3:00 10 10 mph 1009.7mb 70f
2:00 7 7 mph 1009.7mb 67f
1:00 13 13 mph 1009.8mb 69f
12:00 15 15 mph 1009.9mb 69f
Sa 08/19 11:00 15 15 mph 1009.5mb 69f
10:00 15 16 mph 1009.4mb 65f
9:00 18 20 mph 1009mb 67f
8:00 18 20 mph 1008.6mb 66f
7:00 17 20 mph 1008.1mb 65f
6:00 16 17 mph 1008.3mb 65f
5:00 16 16 mph 1008.1mb 65f
4:00 18 20 mph 1008mb 65f
3:00 14 14 mph 1008.3mb 66f
2:00 13 13 mph 1008.6mb 65f
1:00 8 8 mph 1009.2mb 65f
12:00 6 6 mph 1009.3mb 64f
11:00 3 3 mph 1009.5mb 64f
10:00 7 8 mph 1009.4mb 63f
9:00 6 6 mph 1009.3mb 63f
8:00 5 5 mph 1009.2mb 62f
7:00 11 11 mph 1008.7mb 61f
6:00 13 14 mph 1008.4mb 61f
5:00 10 11 mph 1008.2mb 61f
4:00 13 14 mph 1007.6mb 61f
3:00 16 17 mph 1007.7mb 61f
2:00 15 17 mph 1008.1mb 62f
1:00 14 15 mph 1008.4mb 63f
12:00 9 10 mph 1009.2mb 66f
Fr 08/18 11:00 20 20 mph 1008.9mb 70f
10:00 24 25 mph 1008.9mb 69f
9:00 23 24 mph 1009mb 68f
8:00 24 26 mph 1009.1mb 68f
6:00 22 23 mph 1009.6mb 68f
5:00 24 26 mph 1009.6mb 68f
4:00 25 26 mph 1010mb 68f
3:00 24 28 mph 1010.4mb 69f
2:00 20 21 mph 1011.2mb 68f
1:00 21 21 mph 1011.9mb 67f
12:00 17 18 mph 1012.8mb 67f
11:00 16 17 mph 1012.9mb 67f
10:00 13 14 mph 1013.4mb 67f
9:00 9 10 mph 1014.3mb 66f
8:00 10 11 mph 1014.5mb 65f
7:00 6 7 mph 1014.2mb 66f
6:00 5 6 mph 1014.2mb 66f
5:00 8 9 mph 1013.8mb 65f
4:00 10 10 mph 1014.3mb 69f
3:00 7 8 mph 1014.7mb 67f
2:00 7 7 mph 1015mb 69f
1:00 7 7 mph 1015.2mb 68f
12:00 6 6 mph 1015.3mb 74f
Do 08/17 11:00 8 9 mph 1015.2mb 70f
10:00 9 9 mph 1015.2mb 70f
9:00 13 13 mph 1015.2mb 71f
8:00 8 8 mph 1014.5mb 76f
7:00 11 11 mph 1014.2mb 77f
6:00 11 14 mph 1014mb 75f
5:00 15 16 mph 1013.9mb 77f
4:00 16 17 mph 1014.1mb 76f
3:00 13 14 mph 1014.4mb 76f
2:00 15 16 mph 1014.9mb 74f
1:00 11 11 mph 1015.7mb 72f
12:00 11 13 mph 1016.1mb 70f
11:00 10 11 mph 1016.7mb 64f
10:00 7 7 mph 1017.3mb 63f
9:00 11 11 mph 1017.3mb 60f
8:00 11 13 mph 1017.4mb 59f
7:00 13 14 mph 1017.1mb 60f
6:00 10 11 mph 1016.5mb 59f
5:00 9 9 mph 1016.2mb 60f
4:00 7 8 mph 1016.4mb 60f
3:00 10 11 mph 1016mb 62f
2:00 10 11 mph 1016.1mb 62f
1:00 6 7 mph 1016mb 63f
12:00 11 11 mph 1015.8mb 65f
Mi 08/16 11:00 14 14 mph 1015.6mb 66f
10:00 8 9 mph 1015.3mb 69f
9:00 9 10 mph 1014.8mb 72f
8:00 9 10 mph 1014.2mb 72f
7:00 13 14 mph 1013.2mb 75f
6:00 16 17 mph 1012.8mb 76f
5:00 18 21 mph 1012.4mb 75f
4:00 22 23 mph 1012.1mb 76f